Mecheria, Algeria
Current Conditions -  °F | °C
As of 3:00 PM on Sunday 25 Jan 2015 (Local Time) from DAOV Reporting Station
Broken Clouds Broken Clouds  
Wind Chill: 52°   Ceiling: 3000
Heat Index: 52°   Visibility: 6mi
Dew Point: 45°   Wind: 18mph
Humidity: 76%   Direction: 350°N
Pressure: 30.18"   Gusts: NA
Location:  33.55°N, 0.28°W
Report Text: DAOV 251400Z 35016KT 9999 BKN030 11/07 Q1022
Loading
Personal Weather Stations






























Interactive Weather Map New forecast layout! Learn more

10-Day Weather Forecast

Advertisements
Track Severe Weather on mobile